Time;durP1;ratioP1;P1;durP2;ratioP2;P2;SDS_P1;SDS_P2;PMS_P1;PMS_P2;Temp;Humidity;BMP_temperature;BMP_pressure;BME280_temperature;BME280_humidity;BME280_pressure;Samples;Min_cycle;Max_cycle;Signal;HPM_P1;HPM_P2
2022/01/30 00:00:39;;;;;;;9.88;3.28;;;8.50;99.90;;;;;;5033378;28;20021;-44
2022/01/30 00:03:05;;;;;;;21.75;4.10;;;8.50;99.90;;;;;;5033256;28;20028;-43
2022/01/30 00:05:32;;;;;;;23.15;3.58;;;8.60;99.90;;;;;;5033597;28;20026;-44
2022/01/30 00:07:58;;;;;;;23.98;4.95;;;8.60;99.90;;;;;;5033718;28;20022;-45
2022/01/30 00:10:23;;;;;;;20.65;4.22;;;8.60;99.90;;;;;;5033505;28;20039;-46
2022/01/30 00:12:53;;;;;;;19.27;4.25;;;8.70;99.90;;;;;;5033534;28;20036;-41
2022/01/30 00:15:24;;;;;;;10.45;3.42;;;8.60;99.90;;;;;;5033277;28;20022;-44
2022/01/30 00:18:05;;;;;;;16.77;4.88;;;8.60;99.90;;;;;;5033409;28;20026;-44
2022/01/30 00:20:33;;;;;;;22.60;5.15;;;8.60;99.90;;;;;;5033527;28;20033;-46
2022/01/30 00:23:14;;;;;;;16.38;4.28;;;8.70;99.90;;;;;;5032899;28;20477;-44
2022/01/30 00:25:50;;;;;;;26.85;4.90;;;8.70;99.90;;;;;;5032881;28;20028;-45
2022/01/30 00:28:17;;;;;;;13.13;3.33;;;8.80;99.90;;;;;;5033038;28;20028;-50
2022/01/30 00:30:43;;;;;;;11.02;2.63;;;8.80;99.90;;;;;;5031524;28;20144;-48
2022/01/30 00:33:09;;;;;;;16.60;4.45;;;8.80;99.90;;;;;;5032539;28;20104;-45
2022/01/30 00:35:37;;;;;;;16.20;3.75;;;8.90;99.90;;;;;;5032719;28;20120;-43
2022/01/30 00:38:05;;;;;;;21.17;3.92;;;9.00;99.90;;;;;;5033157;28;20028;-40
2022/01/30 00:40:31;;;;;;;16.88;3.97;;;9.00;99.90;;;;;;5033133;28;20109;-41
2022/01/30 00:42:57;;;;;;;15.18;3.38;;;9.00;99.90;;;;;;5032301;28;20541;-47
2022/01/30 00:45:22;;;;;;;16.40;4.43;;;9.00;99.90;;;;;;5032786;28;20034;-46
2022/01/30 00:47:48;;;;;;;17.10;4.85;;;9.10;99.90;;;;;;5031710;28;20051;-44
2022/01/30 00:50:13;;;;;;;19.27;4.63;;;9.20;99.90;;;;;;5032585;28;20056;-41
2022/01/30 00:52:39;;;;;;;18.13;3.83;;;9.20;99.90;;;;;;5032045;28;20025;-42
2022/01/30 00:55:05;;;;;;;19.60;3.75;;;9.10;99.90;;;;;;5031742;28;20037;-46
2022/01/30 00:57:31;;;;;;;22.13;4.93;;;9.10;99.90;;;;;;5032774;28;20033;-44
2022/01/30 00:59:56;;;;;;;17.90;3.72;;;9.20;99.90;;;;;;5032294;28;20056;-44
2022/01/30 01:02:22;;;;;;;13.18;4.35;;;9.10;99.90;;;;;;5032699;28;20121;-47
2022/01/30 01:04:48;;;;;;;16.95;3.50;;;9.20;99.90;;;;;;5031843;28;20069;-45
2022/01/30 01:07:19;;;;;;;14.05;4.10;;;9.10;99.90;;;;;;5056503;22;20076;-47
2022/01/30 01:09:55;;;;;;;22.77;4.70;;;9.10;99.90;;;;;;5052215;28;20025;-47
2022/01/30 01:25:50;;;;;;;19.48;4.38;;;9.20;99.90;;;;;;5052218;28;20021;-50
2022/01/30 01:28:15;;;;;;;17.50;3.67;;;9.20;99.90;;;;;;5052046;28;20025;-48
2022/01/30 01:30:41;;;;;;;18.77;4.30;;;9.20;99.90;;;;;;5052023;28;20151;-46
2022/01/30 01:33:07;;;;;;;14.60;3.88;;;9.10;99.90;;;;;;5051491;28;20025;-47
2022/01/30 01:35:33;;;;;;;14.00;3.25;;;9.00;99.90;;;;;;5050998;28;20025;-46
2022/01/30 01:37:58;;;;;;;14.75;4.70;;;9.10;99.90;;;;;;5051916;28;20036;-49
2022/01/30 01:40:24;;;;;;;18.35;3.47;;;9.10;99.90;;;;;;5051695;28;20036;-47
2022/01/30 01:42:50;;;;;;;16.30;4.13;;;9.10;99.90;;;;;;5051510;28;20491;-48
2022/01/30 01:45:20;;;;;;;14.00;4.03;;;9.10;99.90;;;;;;5051537;28;20029;-49
2022/01/30 01:47:46;;;;;;;14.85;3.22;;;9.00;99.90;;;;;;5051496;28;20067;-49
2022/01/30 01:50:17;;;;;;;19.55;4.20;;;9.00;99.90;;;;;;5051464;28;20495;-47
2022/01/30 01:52:45;;;;;;;12.90;3.72;;;9.00;99.90;;;;;;5050998;28;20116;-50
2022/01/30 01:55:10;;;;;;;14.63;4.97;;;9.00;99.90;;;;;;5051220;28;20065;-46
2022/01/30 01:57:36;;;;;;;21.50;3.72;;;8.90;99.90;;;;;;5051357;28;20444;-49
2022/01/30 02:00:04;;;;;;;18.50;3.35;;;8.80;99.90;;;;;;5051142;28;20070;-47
2022/01/30 02:02:29;;;;;;;10.32;3.42;;;8.80;99.90;;;;;;5051333;28;20025;-48
2022/01/30 02:04:58;;;;;;;11.88;2.75;;;8.80;99.90;;;;;;5051059;28;20105;-49
2022/01/30 02:07:59;;;;;;;23.98;3.75;;;8.80;99.90;;;;;;5051811;28;20489;-50
2022/01/30 02:10:35;;;;;;;21.67;4.22;;;8.80;99.90;;;;;;5055132;28;20437;-51
2022/01/30 02:13:28;;;;;;;13.13;3.00;;;8.80;99.90;;;;;;5053921;28;20093;-48
2022/01/30 02:24:11;;;;;;;13.25;4.38;;;8.70;99.90;;;;;;5054995;28;20036;-48
2022/01/30 02:26:42;;;;;;;9.00;2.63;;;8.70;99.90;;;;;;5055059;28;20025;-47
2022/01/30 02:29:08;;;;;;;11.50;3.05;;;8.70;99.90;;;;;;5054935;28;20021;-48
2022/01/30 02:31:39;;;;;;;20.10;5.30;;;8.70;99.90;;;;;;5054839;28;20582;-49
2022/01/30 02:34:04;;;;;;;11.82;3.22;;;8.70;99.90;;;;;;5054755;28;20021;-50
2022/01/30 02:36:30;;;;;;;17.05;3.03;;;8.70;99.90;;;;;;5054891;28;20028;-49
2022/01/30 02:38:58;;;;;;;16.85;5.13;;;8.60;99.90;;;;;;5054751;28;20468;-46
2022/01/30 02:41:24;;;;;;;19.08;3.60;;;8.50;99.90;;;;;;5054682;28;20028;-50
2022/01/30 02:44:06;;;;;;;11.80;2.80;;;8.50;99.90;;;;;;5054338;28;20025;-48
2022/01/30 02:46:35;;;;;;;18.00;4.15;;;8.50;99.90;;;;;;5054607;28;20017;-50
2022/01/30 02:49:12;;;;;;;11.95;2.95;;;8.40;99.90;;;;;;5054629;28;20021;-50
2022/01/30 02:51:47;;;;;;;11.75;3.25;;;8.40;99.90;;;;;;5054245;28;20033;-49
2022/01/30 02:54:13;;;;;;;17.42;3.25;;;8.50;99.90;;;;;;5054389;28;20025;-51
2022/01/30 02:56:40;;;;;;;16.50;3.97;;;8.40;99.90;;;;;;5054450;28;20500;-48
2022/01/30 02:59:06;;;;;;;16.25;2.70;;;8.40;99.90;;;;;;5054280;28;20028;-49
2022/01/30 03:01:32;;;;;;;16.33;2.63;;;8.30;99.90;;;;;;5054386;28;20021;-48
2022/01/30 03:03:57;;;;;;;12.32;3.25;;;8.30;99.90;;;;;;5054368;28;20036;-51
2022/01/30 03:06:23;;;;;;;17.05;3.97;;;8.40;99.90;;;;;;5054115;28;20090;-48
2022/01/30 03:08:48;;;;;;;12.63;2.50;;;8.40;99.90;;;;;;5054317;28;20029;-50
2022/01/30 03:11:14;;;;;;;10.45;2.92;;;8.60;99.90;;;;;;5054073;28;20036;-49
2022/01/30 03:13:39;;;;;;;9.55;2.80;;;8.60;99.90;;;;;;5053761;28;20024;-47
2022/01/30 03:16:05;;;;;;;17.58;3.17;;;8.60;99.90;;;;;;5054166;28;20032;-48
2022/01/30 03:18:31;;;;;;;14.48;3.45;;;8.70;99.90;;;;;;5053589;28;20028;-50
2022/01/30 03:20:57;;;;;;;16.02;3.40;;;8.80;99.90;;;;;;5054275;28;20536;-47
2022/01/30 03:23:24;;;;;;;12.45;3.67;;;8.60;99.90;;;;;;5053669;28;20028;-49
2022/01/30 03:25:54;;;;;;;12.45;2.97;;;8.50;99.90;;;;;;5053923;28;20036;-49
2022/01/30 03:28:20;;;;;;;24.20;4.50;;;8.50;99.90;;;;;;5053830;28;20029;-49
2022/01/30 03:30:47;;;;;;;12.30;3.63;;;8.40;99.90;;;;;;5053833;28;20117;-47
2022/01/30 03:33:13;;;;;;;15.65;3.13;;;8.40;99.90;;;;;;5053514;28;20031;-50
2022/01/30 03:35:40;;;;;;;14.40;4.32;;;8.40;99.90;;;;;;5053775;28;20124;-49
2022/01/30 03:38:06;;;;;;;22.80;4.20;;;8.40;99.90;;;;;;5053710;28;20099;-49
2022/01/30 03:40:31;;;;;;;14.45;2.63;;;8.30;99.90;;;;;;5052314;28;20124;-47
2022/01/30 03:42:57;;;;;;;14.77;2.97;;;8.20;99.90;;;;;;5053166;28;20024;-49
2022/01/30 03:45:22;;;;;;;13.25;3.15;;;8.30;99.90;;;;;;5053502;28;20025;-48
2022/01/30 03:47:48;;;;;;;14.18;3.03;;;8.30;99.90;;;;;;5053500;28;20033;-50
2022/01/30 03:50:13;;;;;;;12.82;2.85;;;8.20;99.90;;;;;;5053401;28;20024;-51
2022/01/30 03:52:39;;;;;;;20.67;3.45;;;8.10;99.90;;;;;;5052895;28;20078;-47
2022/01/30 03:55:05;;;;;;;12.98;2.72;;;8.10;99.90;;;;;;5051958;28;20029;-47
2022/01/30 03:57:30;;;;;;;12.20;2.90;;;8.00;99.90;;;;;;5053242;28;20079;-47
2022/01/30 03:59:56;;;;;;;17.05;3.42;;;8.00;99.90;;;;;;5053243;28;20028;-49
2022/01/30 04:02:23;;;;;;;21.08;4.00;;;8.00;99.90;;;;;;5053333;28;20020;-48
2022/01/30 04:04:48;;;;;;;10.57;3.20;;;8.00;99.90;;;;;;5053040;28;20111;-46
2022/01/30 04:07:14;;;;;;;19.30;3.88;;;7.80;99.90;;;;;;5052921;28;20570;-53
2022/01/30 04:09:40;;;;;;;14.60;3.35;;;7.80;99.90;;;;;;5053282;28;20041;-50
2022/01/30 04:12:06;;;;;;;19.90;3.95;;;7.80;99.90;;;;;;5053178;28;20045;-49
2022/01/30 04:14:32;;;;;;;27.27;4.82;;;7.80;99.90;;;;;;5052739;28;20559;-51
2022/01/30 04:16:57;;;;;;;23.08;4.10;;;7.80;99.90;;;;;;5053107;28;20092;-49
2022/01/30 04:19:23;;;;;;;14.48;3.22;;;7.70;99.90;;;;;;5052856;28;20041;-49
2022/01/30 04:21:49;;;;;;;19.20;4.00;;;7.80;99.90;;;;;;5052784;28;20498;-52
2022/01/30 04:24:14;;;;;;;15.63;3.42;;;7.70;99.90;;;;;;5052559;28;20032;-48
2022/01/30 04:26:42;;;;;;;12.75;3.35;;;7.70;99.90;;;;;;5051495;28;20068;-51
2022/01/30 04:29:08;;;;;;;14.10;3.95;;;7.70;99.90;;;;;;5052823;28;20017;-48
2022/01/30 04:31:34;;;;;;;12.82;4.13;;;7.60;99.90;;;;;;5051793;28;20476;-49
2022/01/30 04:33:59;;;;;;;19.58;3.90;;;7.60;99.90;;;;;;5052592;28;20029;-50
2022/01/30 04:36:30;;;;;;;14.25;2.58;;;7.60;99.90;;;;;;5052526;28;20083;-49
2022/01/30 04:39:01;;;;;;;21.88;3.80;;;7.60;99.90;;;;;;5052747;28;20056;-49
2022/01/30 04:53:19;;;;;;;29.00;4.38;;;7.60;99.90;;;;;;5052330;28;20032;-47
2022/01/30 04:58:18;;;;;;;20.10;3.50;;;7.50;99.90;;;;;;5052567;28;20043;-49
2022/01/30 05:06:06;;;;;;;12.75;2.92;;;7.40;99.90;;;;;;5052351;28;20032;-48
2022/01/30 05:08:32;;;;;;;23.50;4.22;;;7.30;99.90;;;;;;5052056;28;20021;-46
2022/01/30 05:10:58;;;;;;;18.10;4.55;;;7.30;99.90;;;;;;5051856;28;20538;-51
2022/01/30 05:13:27;;;;;;;14.63;3.60;;;7.20;99.90;;;;;;5051709;28;20029;-50
2022/01/30 05:15:54;;;;;;;25.35;4.47;;;7.30;99.90;;;;;;5051805;28;20482;-51
2022/01/30 05:18:25;;;;;;;15.48;3.13;;;7.20;99.90;;;;;;5052055;28;20029;-48
2022/01/30 05:20:51;;;;;;;16.25;3.53;;;7.20;99.90;;;;;;5051673;28;20028;-48
2022/01/30 05:23:17;;;;;;;18.20;3.47;;;7.20;99.90;;;;;;5051639;28;20025;-49
2022/01/30 05:25:51;;;;;;;20.33;3.67;;;7.20;99.90;;;;;;5051744;28;20017;-49
2022/01/30 05:28:19;;;;;;;24.67;4.10;;;7.20;99.90;;;;;;5051909;28;20055;-49
2022/01/30 05:30:45;;;;;;;15.27;3.85;;;7.20;99.90;;;;;;5051927;28;20036;-49
2022/01/30 05:33:14;;;;;;;27.60;3.95;;;7.20;99.90;;;;;;5051332;28;20036;-50
2022/01/30 05:35:40;;;;;;;20.20;3.80;;;7.20;99.90;;;;;;5051808;28;20028;-48
2022/01/30 05:38:06;;;;;;;18.73;4.38;;;7.10;99.90;;;;;;5051811;28;20028;-49
2022/01/30 05:40:35;;;;;;;26.20;3.80;;;7.10;99.90;;;;;;5051618;28;20055;-47
2022/01/30 05:43:02;;;;;;;18.80;4.07;;;7.10;99.90;;;;;;5050895;28;20083;-51
2022/01/30 05:45:33;;;;;;;19.70;3.50;;;7.10;99.90;;;;;;5051394;28;20013;-47
2022/01/30 05:48:04;;;;;;;21.75;3.55;;;7.20;99.90;;;;;;5051547;28;20401;-47
2022/01/30 05:50:30;;;;;;;25.55;4.75;;;7.10;99.90;;;;;;5051407;28;20439;-48
2022/01/30 05:52:56;;;;;;;24.20;4.55;;;7.10;99.90;;;;;;5050611;28;20549;-48
2022/01/30 05:55:21;;;;;;;17.80;4.07;;;7.00;99.90;;;;;;5051348;28;20112;-50
2022/01/30 05:57:47;;;;;;;21.55;4.75;;;7.10;99.90;;;;;;5051465;28;20021;-46
2022/01/30 06:00:15;;;;;;;19.73;4.18;;;7.20;99.90;;;;;;5051528;28;20036;-49
2022/01/30 06:02:44;;;;;;;23.73;4.38;;;7.20;99.90;;;;;;5051376;28;20424;-52
2022/01/30 06:05:10;;;;;;;18.80;3.35;;;7.20;99.90;;;;;;5051170;28;20158;-51
2022/01/30 06:07:45;;;;;;;19.67;4.53;;;7.20;99.90;;;;;;5051140;28;20501;-48
2022/01/30 06:10:11;;;;;;;16.92;3.97;;;7.20;99.90;;;;;;5051454;28;20025;-48
2022/01/30 06:12:36;;;;;;;19.88;3.85;;;7.10;99.90;;;;;;5051271;28;20032;-51
2022/01/30 06:15:02;;;;;;;18.60;3.75;;;7.10;99.90;;;;;;5050969;28;20040;-49
2022/01/30 06:17:27;;;;;;;23.50;4.20;;;7.20;99.90;;;;;;5051185;28;20542;-49
2022/01/30 06:19:53;;;;;;;29.40;6.82;;;7.20;99.90;;;;;;5051036;28;20087;-47
2022/01/30 06:22:18;;;;;;;21.88;5.28;;;7.10;99.90;;;;;;5051346;28;20025;-48
2022/01/30 06:24:44;;;;;;;22.85;3.60;;;7.10;99.90;;;;;;5050889;28;20020;-49
2022/01/30 06:27:09;;;;;;;21.00;4.65;;;7.10;99.90;;;;;;5051109;28;20100;-49
2022/01/30 06:29:35;;;;;;;17.80;3.53;;;7.10;99.90;;;;;;5050920;28;20027;-48
2022/01/30 06:32:00;;;;;;;14.73;3.25;;;7.10;99.90;;;;;;5049733;28;20021;-48
2022/01/30 06:34:28;;;;;;;17.08;2.97;;;7.10;99.90;;;;;;5050623;28;20033;-51
2022/01/30 06:36:54;;;;;;;22.35;4.97;;;7.10;99.90;;;;;;5050918;28;20476;-47
2022/01/30 06:39:19;;;;;;;21.75;4.20;;;7.10;99.90;;;;;;5050888;28;20033;-52
2022/01/30 06:41:45;;;;;;;17.20;3.85;;;7.10;99.90;;;;;;5051222;28;20376;-50
2022/01/30 06:44:10;;;;;;;24.45;4.63;;;7.10;99.90;;;;;;5050683;28;20508;-48
2022/01/30 06:46:36;;;;;;;24.58;3.92;;;7.10;99.90;;;;;;5050796;28;20028;-49
2022/01/30 06:49:01;;;;;;;19.60;3.10;;;7.10;99.90;;;;;;5050881;28;20032;-51
2022/01/30 06:51:27;;;;;;;16.25;3.28;;;7.00;99.90;;;;;;5050597;28;20036;-47
2022/01/30 06:53:52;;;;;;;17.85;2.97;;;7.00;99.90;;;;;;5051985;28;20120;-48
2022/01/30 06:56:18;;;;;;;12.95;3.05;;;7.00;99.90;;;;;;5054493;28;20025;-50
2022/01/30 06:58:43;;;;;;;16.35;3.00;;;6.90;99.90;;;;;;5053362;28;20025;-47
2022/01/30 07:01:10;;;;;;;14.98;2.78;;;6.90;99.90;;;;;;5054271;28;20029;-49
2022/01/30 07:03:36;;;;;;;12.45;3.33;;;6.90;99.90;;;;;;5054175;28;20017;-51
2022/01/30 07:06:02;;;;;;;19.10;4.80;;;6.80;99.90;;;;;;5054458;28;20079;-51
2022/01/30 07:08:27;;;;;;;24.25;5.03;;;6.80;99.90;;;;;;5055576;28;20029;-48
2022/01/30 07:10:53;;;;;;;24.27;3.80;;;6.80;99.90;;;;;;5054437;28;20064;-50
2022/01/30 07:13:18;;;;;;;16.10;3.38;;;6.80;99.90;;;;;;5054022;28;20040;-50
2022/01/30 07:15:44;;;;;;;17.00;3.28;;;6.80;99.90;;;;;;5054066;28;20064;-50
2022/01/30 07:18:09;;;;;;;10.40;3.40;;;6.80;99.90;;;;;;5054169;28;20025;-49
2022/01/30 07:20:35;;;;;;;20.45;3.45;;;6.70;99.90;;;;;;5053925;28;20032;-48
2022/01/30 07:23:00;;;;;;;19.02;3.13;;;6.70;99.90;;;;;;5053726;28;20047;-48
2022/01/30 07:25:26;;;;;;;14.55;3.50;;;6.80;99.90;;;;;;5054116;28;20036;-51
2022/01/30 07:27:51;;;;;;;15.20;3.10;;;6.80;99.90;;;;;;5054445;28;20390;-49
2022/01/30 07:30:17;;;;;;;25.67;3.50;;;6.80;99.90;;;;;;5053691;28;20025;-46
2022/01/30 07:32:42;;;;;;;14.63;3.22;;;6.80;99.90;;;;;;5053559;28;20067;-48
2022/01/30 07:35:08;;;;;;;14.43;3.72;;;6.80;99.90;;;;;;5053762;28;20029;-47
2022/01/30 07:37:35;;;;;;;18.20;2.85;;;6.80;99.90;;;;;;5053811;28;20381;-44
2022/01/30 07:40:02;;;;;;;16.60;2.88;;;6.80;99.90;;;;;;5053658;28;20488;-48
2022/01/30 07:42:28;;;;;;;15.02;3.10;;;6.80;99.90;;;;;;5053705;28;20496;-48
2022/01/30 07:44:54;;;;;;;20.95;2.75;;;6.80;99.90;;;;;;5053347;28;20056;-51
2022/01/30 07:47:21;;;;;;;11.57;2.78;;;6.80;99.90;;;;;;5053564;28;20079;-47
2022/01/30 07:49:51;;;;;;;14.25;2.97;;;6.70;99.90;;;;;;5053607;28;20021;-49
2022/01/30 07:52:21;;;;;;;14.43;3.38;;;6.70;99.90;;;;;;5053076;28;20013;-54
2022/01/30 07:54:47;;;;;;;16.45;3.47;;;6.80;99.90;;;;;;5053203;28;20021;-47
2022/01/30 07:57:12;;;;;;;17.52;3.63;;;6.80;99.90;;;;;;5053474;28;20036;-51
2022/01/30 07:59:38;;;;;;;15.75;3.10;;;6.90;99.90;;;;;;5053543;28;20435;-48
2022/01/30 08:02:04;;;;;;;19.77;3.72;;;6.90;99.90;;;;;;5053403;28;20052;-49
2022/01/30 08:04:29;;;;;;;18.65;3.05;;;7.00;99.90;;;;;;5053103;28;20021;-47
2022/01/30 08:06:55;;;;;;;14.05;3.20;;;7.00;99.90;;;;;;5053180;28;20060;-50
2022/01/30 08:09:21;;;;;;;11.55;3.15;;;7.00;99.90;;;;;;5053141;28;20017;-48
2022/01/30 08:11:46;;;;;;;13.23;2.63;;;7.00;99.90;;;;;;5052156;28;20119;-51
2022/01/30 08:14:12;;;;;;;10.70;2.42;;;7.20;99.90;;;;;;5052900;28;20492;-47
2022/01/30 08:16:38;;;;;;;14.15;2.90;;;7.20;99.90;;;;;;5052645;28;20031;-46
2022/01/30 08:19:04;;;;;;;11.57;3.47;;;7.10;99.90;;;;;;5044376;28;20022;-46
2022/01/30 08:21:30;;;;;;;11.93;3.75;;;7.20;99.90;;;;;;5033021;28;20041;-51
2022/01/30 08:23:56;;;;;;;8.23;2.47;;;7.30;99.90;;;;;;5043097;28;20499;-48
2022/01/30 08:26:21;;;;;;;17.88;3.60;;;7.30;99.90;;;;;;5052899;28;20033;-47
2022/01/30 08:28:47;;;;;;;12.70;2.17;;;7.30;99.90;;;;;;5052906;28;20484;-50
2022/01/30 08:31:12;;;;;;;12.57;3.90;;;7.40;99.90;;;;;;5052824;28;20039;-46
2022/01/30 08:33:38;;;;;;;17.42;3.45;;;7.40;99.90;;;;;;5052601;28;20030;-46
2022/01/30 08:36:04;;;;;;;12.80;3.05;;;7.30;99.90;;;;;;5052862;28;20388;-50
2022/01/30 08:38:29;;;;;;;8.20;2.22;;;7.30;99.90;;;;;;5039909;28;20100;-47
2022/01/30 08:40:54;;;;;;;19.67;2.97;;;7.40;99.90;;;;;;5046006;28;20033;-47
2022/01/30 08:43:21;;;;;;;10.40;3.20;;;7.40;99.90;;;;;;5032742;28;20017;-48
2022/01/30 08:45:51;;;;;;;24.45;2.85;;;7.50;99.90;;;;;;5045667;28;20538;-51
2022/01/30 08:48:18;;;;;;;12.05;2.38;;;7.50;99.90;;;;;;5052674;28;20025;-49
2022/01/30 08:50:44;;;;;;;15.50;4.35;;;7.50;99.90;;;;;;5052350;28;20116;-46
2022/01/30 08:53:09;;;;;;;11.95;2.78;;;7.50;99.90;;;;;;5051354;28;20029;-49
2022/01/30 08:55:35;;;;;;;16.85;3.70;;;7.50;99.90;;;;;;5051887;28;20120;-49
2022/01/30 08:58:08;;;;;;;12.10;3.00;;;7.50;99.90;;;;;;5052376;28;20029;-47
2022/01/30 09:00:38;;;;;;;10.93;3.75;;;7.50;99.90;;;;;;5040901;28;20166;-51
2022/01/30 09:03:05;;;;;;;8.07;1.98;;;7.60;99.90;;;;;;5032123;28;20055;-48
2022/01/30 09:05:32;;;;;;;13.20;2.60;;;7.50;99.90;;;;;;5032121;28;20071;-49
2022/01/30 09:07:59;;;;;;;16.50;2.78;;;7.50;99.90;;;;;;5032303;28;20029;-46
2022/01/30 09:10:25;;;;;;;13.50;2.47;;;7.60;99.90;;;;;;5032558;28;20033;-47
2022/01/30 09:12:51;;;;;;;6.40;1.95;;;7.50;99.90;;;;;;5044126;28;20021;-50
2022/01/30 09:15:17;;;;;;;12.93;3.17;;;7.50;99.90;;;;;;5052101;28;20059;-47
2022/01/30 09:17:44;;;;;;;12.52;2.78;;;7.50;99.90;;;;;;5050260;28;20029;-48
2022/01/30 09:20:11;;;;;;;9.45;2.42;;;7.70;99.90;;;;;;5051755;28;20029;-48
2022/01/30 09:22:37;;;;;;;11.07;2.47;;;7.90;99.90;;;;;;5051353;28;20035;-57
2022/01/30 09:25:04;;;;;;;10.02;2.40;;;8.10;99.90;;;;;;5052264;28;20393;-49
2022/01/30 09:27:29;;;;;;;13.88;3.08;;;8.20;99.90;;;;;;5051685;28;20115;-47
2022/01/30 09:29:55;;;;;;;12.55;3.15;;;8.50;99.90;;;;;;5051825;28;20057;-48
2022/01/30 09:32:20;;;;;;;22.80;2.63;;;8.70;99.00;;;;;;5050529;28;20048;-47
2022/01/30 09:34:46;;;;;;;15.75;2.60;;;8.80;99.00;;;;;;5048701;28;20400;-49
2022/01/30 09:37:11;;;;;;;12.07;3.03;;;9.10;98.90;;;;;;5051079;28;20021;-56
2022/01/30 09:39:40;;;;;;;10.13;2.83;;;9.90;97.20;;;;;;5050027;28;20029;-46
2022/01/30 09:42:06;;;;;;;18.08;3.30;;;10.10;96.40;;;;;;5051616;28;20037;-49
2022/01/30 09:44:41;;;;;;;7.15;3.58;;;9.80;96.90;;;;;;5051453;28;20507;-47
2022/01/30 09:47:13;;;;;;;16.23;3.72;;;10.00;96.80;;;;;;5051449;28;20021;-49
2022/01/30 09:49:59;;;;;;;15.88;2.58;;;9.90;96.40;;;;;;5051532;28;20108;-50
2022/01/30 09:52:25;;;;;;;15.40;3.38;;;9.60;96.50;;;;;;5051219;28;20025;-48
2022/01/30 09:54:50;;;;;;;11.77;3.28;;;9.30;97.00;;;;;;5051544;28;20044;-48
2022/01/30 09:57:16;;;;;;;18.02;3.42;;;9.00;96.80;;;;;;5051456;28;20464;-51
2022/01/30 09:59:42;;;;;;;12.90;2.95;;;8.70;97.00;;;;;;5051465;28;20029;-48
2022/01/30 10:02:09;;;;;;;22.67;3.45;;;8.40;97.60;;;;;;5051632;28;20507;-46
2022/01/30 10:04:35;;;;;;;21.13;3.47;;;8.30;97.50;;;;;;5051160;28;20021;-50
2022/01/30 10:07:07;;;;;;;18.17;3.03;;;8.20;97.80;;;;;;5051380;28;20392;-49
2022/01/30 10:09:36;;;;;;;16.02;3.08;;;8.10;98.20;;;;;;5051421;28;20021;-51
2022/01/30 10:12:19;;;;;;;20.08;3.08;;;8.40;97.20;;;;;;5051260;28;20025;-49
2022/01/30 10:14:52;;;;;;;12.52;2.85;;;8.40;97.20;;;;;;5051101;28;20044;-49
2022/01/30 10:17:34;;;;;;;16.23;2.75;;;8.50;97.00;;;;;;5051274;28;20021;-47
2022/01/30 10:20:12;;;;;;;18.20;3.78;;;8.60;97.10;;;;;;5051167;28;20025;-48
2022/01/30 10:22:51;;;;;;;11.13;2.30;;;9.00;95.60;;;;;;5051198;28;20107;-48
2022/01/30 10:25:22;;;;;;;16.35;3.25;;;9.40;95.40;;;;;;5051192;28;20514;-47
2022/01/30 10:27:48;;;;;;;11.90;2.17;;;9.60;94.60;;;;;;5051165;28;20025;-48
2022/01/30 10:30:21;;;;;;;8.50;2.50;;;9.50;95.00;;;;;;5054905;28;20021;-46
2022/01/30 10:32:56;;;;;;;10.82;3.40;;;9.20;95.10;;;;;;5054791;28;20051;-46
2022/01/30 10:35:23;;;;;;;8.32;2.40;;;9.10;95.70;;;;;;5055142;28;20021;-51
2022/01/30 10:37:48;;;;;;;13.98;3.95;;;9.20;95.50;;;;;;5054893;28;20036;-48
2022/01/30 10:40:24;;;;;;;10.85;2.83;;;9.20;95.90;;;;;;5055108;28;20028;-51
2022/01/30 10:42:50;;;;;;;;;;;9.50;94.50;;;;;;5055217;28;20568;-46
2022/01/30 10:45:19;;;;;;;12.45;2.17;;;9.30;94.30;;;;;;5053409;28;19908;-48
2022/01/30 10:47:45;;;;;;;14.02;2.60;;;9.50;94.30;;;;;;5054831;28;20049;-50
2022/01/30 10:50:16;;;;;;;8.18;2.88;;;9.70;94.40;;;;;;5054717;28;20025;-47
2022/01/30 10:52:58;;;;;;;16.73;2.60;;;9.90;93.90;;;;;;5053161;28;20392;-49
2022/01/30 10:55:38;;;;;;;14.15;3.08;;;9.90;94.00;;;;;;5050026;28;20500;-49
2022/01/30 10:58:06;;;;;;;13.63;2.67;;;10.00;93.90;;;;;;5051871;28;20057;-48
2022/01/30 11:00:59;;;;;;;13.43;2.85;;;9.70;94.40;;;;;;5054380;28;20021;-48
2022/01/30 11:03:37;;;;;;;10.25;2.92;;;9.40;94.70;;;;;;5046272;28;20022;-48
2022/01/30 11:06:07;;;;;;;10.90;3.25;;;9.40;95.00;;;;;;5046946;28;20546;-48
2022/01/30 11:08:34;;;;;;;18.52;4.13;;;9.30;94.90;;;;;;5052342;28;20139;-47
2022/01/30 11:11:02;;;;;;;12.45;2.30;;;9.40;94.50;;;;;;5054078;28;20024;-46
2022/01/30 11:13:32;;;;;;;11.70;1.98;;;9.50;94.20;;;;;;5054568;28;20033;-46
2022/01/30 11:16:56;;;;;;;15.93;3.10;;;9.40;93.80;;;;;;5053352;28;20075;-48
2022/01/30 11:18:53;;;;;;;12.50;2.38;;;9.30;93.90;;;;;;5050828;28;20040;-49
2022/01/30 11:21:24;;;;;;;21.08;3.55;;;9.50;94.30;;;;;;5053250;28;20036;-46
2022/01/30 11:23:52;;;;;;;18.80;2.65;;;9.60;94.50;;;;;;5051444;28;20022;-47
2022/01/30 11:26:18;;;;;;;13.25;3.28;;;9.50;93.40;;;;;;5052718;28;20056;-46
2022/01/30 11:28:45;;;;;;;14.07;2.53;;;9.40;94.00;;;;;;5053353;28;20070;-47
2022/01/30 11:31:15;;;;;;;14.00;3.63;;;9.50;94.00;;;;;;5053482;28;20025;-46
2022/01/30 11:33:40;;;;;;;10.50;2.50;;;9.50;94.10;;;;;;5039787;28;20136;-47
2022/01/30 11:36:06;;;;;;;13.73;2.55;;;9.30;94.70;;;;;;5032846;28;20596;-51
2022/01/30 11:38:32;;;;;;;12.63;2.92;;;9.40;94.90;;;;;;5035477;28;20060;-50
2022/01/30 11:41:18;;;;;;;16.17;2.40;;;9.50;95.00;;;;;;5033584;28;20037;-49
2022/01/30 11:44:17;;;;;;;10.68;3.75;;;9.50;94.50;;;;;;5035242;28;20025;-49
2022/01/30 11:47:03;;;;;;;11.98;2.63;;;9.50;94.30;;;;;;5042015;28;20039;-54
2022/01/30 11:49:42;;;;;;;17.10;3.28;;;9.60;93.80;;;;;;5032319;28;20448;-51
2022/01/30 11:52:10;;;;;;;10.95;2.83;;;9.30;93.30;;;;;;5043366;28;20361;-52
2022/01/30 11:54:36;;;;;;;18.73;4.75;;;9.20;93.80;;;;;;5053249;28;20029;-48
2022/01/30 11:57:03;;;;;;;18.13;3.25;;;9.20;94.40;;;;;;5043092;28;20476;-48
2022/01/30 11:59:38;;;;;;;10.48;3.80;;;9.30;93.90;;;;;;5053423;28;20124;-48
2022/01/30 12:02:25;;;;;;;18.67;4.22;;;9.30;93.50;;;;;;5051905;28;20024;-50
2022/01/30 12:05:04;;;;;;;14.88;3.42;;;9.30;93.60;;;;;;5053160;28;20017;-50
2022/01/30 12:07:39;;;;;;;16.13;4.00;;;9.30;93.90;;;;;;5050366;28;20402;-48
2022/01/30 12:10:20;;;;;;;18.33;4.10;;;9.30;93.30;;;;;;5033363;28;20028;-48
2022/01/30 12:13:01;;;;;;;18.77;3.95;;;9.10;93.40;;;;;;5033048;28;20022;-48
2022/01/30 12:15:53;;;;;;;19.73;3.00;;;8.90;93.20;;;;;;5033180;28;20017;-48
2022/01/30 12:18:44;;;;;;;22.98;4.97;;;8.70;94.50;;;;;;5029187;28;20530;-50
2022/01/30 12:21:14;;;;;;;21.55;4.18;;;8.70;94.80;;;;;;5032939;28;20540;-51
2022/01/30 12:23:41;;;;;;;22.00;3.45;;;8.60;95.00;;;;;;5032872;28;20030;-51
2022/01/30 12:26:09;;;;;;;23.27;3.80;;;8.60;95.30;;;;;;5042957;28;20032;-51
2022/01/30 12:28:52;;;;;;;17.88;4.20;;;8.60;95.50;;;;;;5052976;28;20104;-49
2022/01/30 12:31:35;;;;;;;15.70;4.30;;;8.60;95.50;;;;;;5051389;28;20534;-49
2022/01/30 12:34:05;;;;;;;21.35;4.40;;;8.60;95.70;;;;;;5052499;28;20032;-53
2022/01/30 12:36:35;;;;;;;21.10;3.38;;;8.60;95.80;;;;;;5052802;28;20412;-50
2022/01/30 12:39:04;;;;;;;24.25;4.10;;;8.70;96.00;;;;;;5052617;28;20028;-47
2022/01/30 12:41:32;;;;;;;15.20;3.33;;;8.70;96.10;;;;;;5051310;28;20489;-52
2022/01/30 12:44:00;;;;;;;23.00;3.75;;;8.70;95.10;;;;;;5050000;28;20057;-48
2022/01/30 12:46:33;;;;;;;19.75;3.55;;;8.80;94.70;;;;;;5051923;28;20488;-52
2022/01/30 12:49:07;;;;;;;20.40;4.55;;;8.90;94.60;;;;;;5033266;28;20032;-51
2022/01/30 12:51:35;;;;;;;17.77;4.75;;;8.90;94.90;;;;;;5036411;28;20025;-47
2022/01/30 12:54:01;;;;;;;14.55;3.78;;;9.00;94.80;;;;;;5052126;28;20099;-47
2022/01/30 12:56:27;;;;;;;16.80;3.30;;;9.00;94.90;;;;;;5051618;28;20084;-48
2022/01/30 12:58:58;;;;;;;18.48;3.70;;;9.00;94.90;;;;;;5040498;28;20045;-49
2022/01/30 13:01:26;;;;;;;20.30;3.97;;;9.00;94.30;;;;;;5035861;28;20319;-51
2022/01/30 13:04:12;;;;;;;16.58;3.67;;;8.90;94.10;;;;;;5044858;28;20013;-48
2022/01/30 13:09:07;;;;;;;22.75;7.35;;;8.80;93.30;;;;;;5048146;28;19920;-43
2022/01/30 13:11:33;;;;;;;17.13;4.63;;;8.90;93.30;;;;;;5044468;28;20036;-43
2022/01/30 13:14:07;;;;;;;26.35;4.32;;;8.80;92.60;;;;;;5051621;28;20401;-47
2022/01/30 13:16:50;;;;;;;21.70;3.95;;;8.80;93.00;;;;;;5051800;28;20032;-41
2022/01/30 13:19:37;;;;;;;22.17;3.22;;;8.80;92.90;;;;;;5033707;28;20029;-44
2022/01/30 13:22:05;;;;;;;18.58;3.10;;;8.80;91.90;;;;;;5031841;28;20446;-44
2022/01/30 13:24:31;;;;;;;18.15;3.15;;;8.80;92.10;;;;;;5031764;28;20494;-46
2022/01/30 13:27:04;;;;;;;19.63;3.45;;;8.70;92.50;;;;;;5032544;28;20067;-49
2022/01/30 13:29:33;;;;;;;21.98;2.85;;;8.70;92.10;;;;;;5031812;28;20025;-50
2022/01/30 13:32:00;;;;;;;17.13;6.18;;;8.70;92.80;;;;;;5031909;28;20056;-44
2022/01/30 13:34:27;;;;;;;20.80;3.70;;;8.70;92.20;;;;;;5031566;28;20040;-47
2022/01/30 13:37:03;;;;;;;7.15;2.50;;;8.70;92.10;;;;;;5031809;28;20029;-45
2022/01/30 13:44:52;;;;;;;15.30;4.00;;;8.70;92.20;;;;;;5012442;28;20034;-45